Time;durP1;ratioP1;P1;durP2;ratioP2;P2;SDS_P1;SDS_P2;PMS_P1;PMS_P2;Temp;Humidity;BMP_temperature;BMP_pressure;BME280_temperature;BME280_humidity;BME280_pressure;Samples;Min_cycle;Max_cycle;Signal;HPM_P1;HPM_P2
2023/08/31 00:01:35;;;;;;;1.07;1.07;;;13.30;99.90;;;;;;5115554;28;20454;-84
2023/08/31 00:04:02;;;;;;;0.83;0.40;;;13.20;99.90;;;;;;5115210;27;20485;-84
2023/08/31 00:06:28;;;;;;;1.27;0.70;;;13.10;99.90;;;;;;5115207;28;20833;-84
2023/08/31 00:08:55;;;;;;;1.10;0.60;;;13.10;99.90;;;;;;5115410;28;20447;-84
2023/08/31 00:11:22;;;;;;;0.50;0.50;;;13.00;99.90;;;;;;5115524;28;20451;-84
2023/08/31 00:13:49;;;;;;;0.83;0.83;;;13.00;99.90;;;;;;5115267;28;20458;-84
2023/08/31 00:16:15;;;;;;;0.50;0.50;;;13.10;99.90;;;;;;5115130;28;20455;-84
2023/08/31 00:18:44;;;;;;;0.60;0.50;;;12.90;99.90;;;;;;5115171;28;20439;-84
2023/08/31 00:21:11;;;;;;;1.00;0.67;;;13.00;99.90;;;;;;5115048;28;20443;-84
2023/08/31 00:23:38;;;;;;;0.40;0.30;;;12.90;99.90;;;;;;5115335;28;20450;-84
2023/08/31 00:26:05;;;;;;;1.23;0.70;;;12.90;99.90;;;;;;5114633;28;20519;-84
2023/08/31 00:28:32;;;;;;;1.23;0.70;;;12.90;99.90;;;;;;5114543;28;21052;-84
2023/08/31 00:31:03;;;;;;;2.50;0.90;;;12.90;99.90;;;;;;5114838;28;20438;-84
2023/08/31 00:33:30;;;;;;;0.70;0.70;;;12.90;99.90;;;;;;5115131;28;20470;-84
2023/08/31 00:36:01;;;;;;;1.27;0.80;;;12.90;99.90;;;;;;5114629;28;20473;-84
2023/08/31 00:38:28;;;;;;;0.50;0.50;;;12.80;99.90;;;;;;5114802;28;20419;-84
2023/08/31 00:40:55;;;;;;;0.73;0.73;;;12.80;99.90;;;;;;5114729;28;20448;-84
2023/08/31 00:43:22;;;;;;;1.20;0.80;;;12.80;99.90;;;;;;5114376;28;20439;-84
2023/08/31 00:45:51;;;;;;;0.63;0.63;;;12.80;99.90;;;;;;5114408;28;20987;-84
2023/08/31 00:48:19;;;;;;;0.60;0.60;;;12.70;99.90;;;;;;5114339;28;20470;-84
2023/08/31 00:50:47;;;;;;;0.67;0.67;;;12.70;99.90;;;;;;5114542;28;20481;-84
2023/08/31 00:53:16;;;;;;;0.57;0.57;;;12.70;99.90;;;;;;5114493;28;20446;-84
2023/08/31 00:55:43;;;;;;;1.40;0.57;;;12.60;99.90;;;;;;5114362;28;20520;-84
2023/08/31 00:58:10;;;;;;;0.60;0.60;;;12.60;99.90;;;;;;5114069;28;20961;-84
2023/08/31 01:00:46;;;;;;;1.03;0.63;;;12.60;99.90;;;;;;5114457;28;20449;-84
2023/08/31 01:03:17;;;;;;;2.63;0.83;;;12.60;99.90;;;;;;5113857;28;20914;-84
2023/08/31 01:05:52;;;;;;;1.90;0.73;;;12.60;99.90;;;;;;5113951;28;20470;-84
2023/08/31 01:08:28;;;;;;;1.30;1.20;;;12.60;99.90;;;;;;5114204;28;20557;-84
2023/08/31 01:11:03;;;;;;;0.70;0.53;;;12.70;99.90;;;;;;5113989;28;20419;-84
2023/08/31 01:13:33;;;;;;;0.40;0.40;;;12.60;99.90;;;;;;5114192;28;20479;-84
2023/08/31 01:16:04;;;;;;;0.50;0.47;;;12.60;99.90;;;;;;5113734;28;20463;-84
2023/08/31 01:18:35;;;;;;;0.60;0.60;;;12.60;99.90;;;;;;5114134;28;20419;-84
2023/08/31 01:21:07;;;;;;;3.03;0.90;;;12.60;99.90;;;;;;5114357;28;20436;-84
2023/08/31 01:23:54;;;;;;;1.13;0.70;;;12.60;99.90;;;;;;5114078;28;20416;-84
2023/08/31 01:26:21;;;;;;;0.90;0.70;;;12.50;99.90;;;;;;5113646;28;20459;-85
2023/08/31 01:28:48;;;;;;;1.00;0.87;;;12.50;99.90;;;;;;5113887;28;20493;-85
2023/08/31 01:31:15;;;;;;;0.77;0.60;;;12.50;99.90;;;;;;5114119;28;20450;-84
2023/08/31 01:33:42;;;;;;;1.43;0.73;;;12.50;99.90;;;;;;5113957;28;20786;-85
2023/08/31 01:36:17;;;;;;;0.50;0.50;;;12.50;99.90;;;;;;5113800;28;20463;-85
2023/08/31 01:38:49;;;;;;;1.37;1.27;;;12.40;99.90;;;;;;5113579;28;20423;-85
2023/08/31 01:41:20;;;;;;;1.30;0.63;;;12.50;99.90;;;;;;5113543;28;20428;-85
2023/08/31 01:43:49;;;;;;;0.40;0.40;;;12.40;99.90;;;;;;5114094;28;20427;-84
2023/08/31 01:46:17;;;;;;;0.50;0.50;;;12.40;99.90;;;;;;5113667;28;20463;-84
2023/08/31 01:48:44;;;;;;;0.60;0.60;;;12.40;99.90;;;;;;5113693;28;20470;-85
2023/08/31 01:51:12;;;;;;;1.53;0.73;;;12.40;99.90;;;;;;5113734;28;20435;-85
2023/08/31 01:53:39;;;;;;;1.23;0.97;;;12.50;99.90;;;;;;5113668;28;20489;-84
2023/08/31 01:56:07;;;;;;;3.50;1.73;;;12.40;99.90;;;;;;5121539;28;20459;-85
2023/08/31 01:58:34;;;;;;;0.60;0.60;;;12.40;99.90;;;;;;5113379;28;20936;-84
2023/08/31 02:01:01;;;;;;;0.77;0.67;;;12.50;99.90;;;;;;5114743;28;20940;-84
2023/08/31 02:03:28;;;;;;;0.43;0.43;;;12.50;99.90;;;;;;5117366;28;20471;-84
2023/08/31 02:05:55;;;;;;;1.13;0.67;;;12.50;99.90;;;;;;5117750;28;20531;-85
2023/08/31 02:08:21;;;;;;;0.80;0.70;;;12.50;99.90;;;;;;5117847;27;20474;-84
2023/08/31 02:10:48;;;;;;;1.17;0.40;;;12.40;99.90;;;;;;5117749;28;20431;-84
2023/08/31 02:13:17;;;;;;;0.50;0.50;;;12.50;99.90;;;;;;5117807;27;20438;-85
2023/08/31 02:15:44;;;;;;;1.10;0.70;;;12.40;99.90;;;;;;5117461;28;20509;-85
2023/08/31 02:18:11;;;;;;;0.83;0.63;;;12.40;99.90;;;;;;5117243;28;20435;-85
2023/08/31 02:20:38;;;;;;;0.90;0.60;;;12.40;99.90;;;;;;5117148;28;20944;-85
2023/08/31 02:23:05;;;;;;;2.43;0.60;;;12.40;99.90;;;;;;5117498;27;20451;-85
2023/08/31 02:25:31;;;;;;;1.17;0.80;;;12.40;99.90;;;;;;5117308;28;20455;-85
2023/08/31 02:27:58;;;;;;;1.07;0.60;;;12.40;99.90;;;;;;5117239;28;20482;-84
2023/08/31 02:30:26;;;;;;;1.27;0.70;;;12.40;99.90;;;;;;5116942;28;20936;-84
2023/08/31 02:32:53;;;;;;;0.60;0.60;;;12.40;99.90;;;;;;5117371;27;20466;-85
2023/08/31 02:35:20;;;;;;;2.40;0.83;;;13.30;99.90;;;;;;5116771;28;21014;-84
2023/08/31 02:37:46;;;;;;;0.73;0.70;;;12.40;99.90;;;;;;5117105;28;20446;-84
2023/08/31 02:40:15;;;;;;;0.97;0.70;;;12.40;99.90;;;;;;5117127;27;20437;-85
2023/08/31 02:42:42;;;;;;;2.40;0.70;;;12.30;99.90;;;;;;5117071;28;20446;-85
2023/08/31 02:45:10;;;;;;;4.00;0.73;;;12.40;99.90;;;;;;5117142;27;20458;-85
2023/08/31 02:47:38;;;;;;;0.90;0.60;;;12.40;99.90;;;;;;5116863;28;20479;-85
2023/08/31 02:50:06;;;;;;;0.50;0.50;;;12.40;99.90;;;;;;5117109;28;20457;-84
2023/08/31 02:52:32;;;;;;;0.77;0.50;;;12.40;99.90;;;;;;5116821;28;20443;-85
2023/08/31 02:54:59;;;;;;;0.50;0.50;;;12.40;99.90;;;;;;5116504;28;20423;-85
2023/08/31 02:57:26;;;;;;;0.80;0.70;;;12.50;99.90;;;;;;5116543;28;20435;-85
2023/08/31 02:59:53;;;;;;;0.57;0.57;;;12.50;99.90;;;;;;5116757;28;20445;-85
2023/08/31 03:02:20;;;;;;;1.10;1.00;;;12.40;99.90;;;;;;5116361;27;20534;-84
2023/08/31 03:04:48;;;;;;;0.70;0.63;;;12.40;99.90;;;;;;5116193;28;20569;-84
2023/08/31 03:07:15;;;;;;;1.57;0.60;;;12.40;99.90;;;;;;5116518;28;20466;-85
2023/08/31 03:09:41;;;;;;;1.13;1.03;;;12.50;99.90;;;;;;5116622;28;20447;-85
2023/08/31 03:12:08;;;;;;;1.30;1.20;;;12.40;99.90;;;;;;5116501;28;20450;-84
2023/08/31 03:14:34;;;;;;;1.47;0.90;;;12.30;99.90;;;;;;5116218;28;20193;-84
2023/08/31 03:17:02;;;;;;;1.13;1.00;;;12.50;99.90;;;;;;5116398;28;20802;-84
2023/08/31 03:19:28;;;;;;;0.50;0.50;;;12.20;99.90;;;;;;5116356;28;20443;-84
2023/08/31 03:21:56;;;;;;;0.73;0.70;;;12.20;99.90;;;;;;5116326;27;20439;-84
2023/08/31 03:24:23;;;;;;;1.03;0.97;;;12.20;99.90;;;;;;5116408;27;20781;-84
2023/08/31 03:26:50;;;;;;;1.00;0.67;;;12.20;99.90;;;;;;5116120;28;20466;-85
2023/08/31 03:29:17;;;;;;;1.03;0.77;;;12.30;99.90;;;;;;5116241;28;20482;-85
2023/08/31 03:31:44;;;;;;;0.80;0.80;;;12.30;99.90;;;;;;5116154;28;20443;-85
2023/08/31 03:34:10;;;;;;;2.93;0.60;;;12.30;99.90;;;;;;5116057;28;20450;-85
2023/08/31 03:36:37;;;;;;;7.93;0.87;;;12.30;99.90;;;;;;5115878;27;20459;-85
2023/08/31 03:39:06;;;;;;;0.80;0.60;;;12.20;99.90;;;;;;5115672;28;20880;-85
2023/08/31 03:41:32;;;;;;;3.43;1.17;;;12.30;99.90;;;;;;5115948;28;20439;-85
2023/08/31 03:43:59;;;;;;;0.87;0.60;;;12.20;99.90;;;;;;5116172;28;20439;-84
2023/08/31 03:46:27;;;;;;;0.90;0.90;;;12.20;99.90;;;;;;5115525;28;20979;-85
2023/08/31 03:48:54;;;;;;;0.73;0.73;;;12.20;99.90;;;;;;5115458;28;20478;-84
2023/08/31 03:51:20;;;;;;;0.60;0.60;;;12.30;99.90;;;;;;5115457;28;20789;-85
2023/08/31 03:53:47;;;;;;;0.70;0.70;;;12.30;99.90;;;;;;5115633;28;20439;-84
2023/08/31 03:56:15;;;;;;;1.37;0.80;;;12.30;99.90;;;;;;5115383;28;20466;-85
2023/08/31 03:58:42;;;;;;;1.03;0.60;;;12.30;99.90;;;;;;5115689;28;20447;-84
2023/08/31 04:01:09;;;;;;;15.00;1.10;;;12.30;99.90;;;;;;5117418;28;20447;-83
2023/08/31 04:03:36;;;;;;;0.90;0.80;;;12.40;99.90;;;;;;5121310;28;20479;-84
2023/08/31 04:06:05;;;;;;;1.70;0.70;;;12.30;99.90;;;;;;5125542;28;20477;-84
2023/08/31 04:08:31;;;;;;;1.37;0.70;;;12.30;99.90;;;;;;5125583;28;20479;-84
2023/08/31 04:10:58;;;;;;;1.00;0.70;;;12.30;99.90;;;;;;5117894;28;20940;-84
2023/08/31 04:13:26;;;;;;;0.87;0.87;;;12.40;99.90;;;;;;5115292;28;20469;-85
2023/08/31 04:15:53;;;;;;;1.00;0.70;;;12.30;99.90;;;;;;5115181;28;20466;-84
2023/08/31 04:18:20;;;;;;;0.77;0.60;;;12.40;99.90;;;;;;5115224;27;20431;-85
2023/08/31 04:20:50;;;;;;;0.60;0.60;;;12.30;99.90;;;;;;5115180;28;20439;-85
2023/08/31 04:23:16;;;;;;;0.90;0.53;;;12.30;99.90;;;;;;5114547;28;20443;-84
2023/08/31 04:25:43;;;;;;;1.13;1.03;;;12.30;99.90;;;;;;5115019;28;20466;-85
2023/08/31 04:28:10;;;;;;;1.77;0.93;;;12.30;99.90;;;;;;5114958;28;20571;-85
2023/08/31 04:30:38;;;;;;;1.23;1.00;;;12.20;99.90;;;;;;5114932;28;20533;-84
2023/08/31 04:33:06;;;;;;;0.73;0.67;;;12.20;99.90;;;;;;5117602;28;20453;-85
2023/08/31 04:35:33;;;;;;;0.70;0.70;;;12.20;99.90;;;;;;5114876;28;20533;-84
2023/08/31 04:38:00;;;;;;;0.60;0.60;;;12.10;99.90;;;;;;5114827;28;20439;-83
2023/08/31 04:40:28;;;;;;;0.90;0.90;;;12.20;99.90;;;;;;5114782;28;20489;-83
2023/08/31 04:42:55;;;;;;;1.13;0.70;;;12.20;99.90;;;;;;5114488;28;20435;-83
2023/08/31 04:45:22;;;;;;;1.03;0.90;;;12.20;99.90;;;;;;5114602;28;20463;-83
2023/08/31 04:47:51;;;;;;;0.77;0.57;;;12.20;99.90;;;;;;5114629;28;20443;-83
2023/08/31 04:50:18;;;;;;;3.03;0.57;;;12.20;99.90;;;;;;5114345;28;20855;-83
2023/08/31 04:52:45;;;;;;;5.20;1.00;;;12.10;99.90;;;;;;5114184;28;20962;-82
2023/08/31 04:55:14;;;;;;;0.80;0.80;;;12.10;99.90;;;;;;5114677;28;20467;-83
2023/08/31 04:57:41;;;;;;;1.00;0.60;;;12.20;99.90;;;;;;5114108;28;20831;-83
2023/08/31 05:00:10;;;;;;;2.00;1.00;;;12.20;99.90;;;;;;5114106;28;20439;-82
2023/08/31 05:02:36;;;;;;;0.60;0.60;;;12.20;99.90;;;;;;5114063;28;20975;-83
2023/08/31 05:05:05;;;;;;;1.57;0.90;;;12.10;99.90;;;;;;5113919;28;20486;-85
2023/08/31 05:07:32;;;;;;;1.73;0.77;;;12.10;99.90;;;;;;5114250;28;20447;-85
2023/08/31 05:09:59;;;;;;;1.17;1.07;;;12.10;99.90;;;;;;5114188;28;20482;-85
2023/08/31 05:12:26;;;;;;;0.53;0.50;;;12.20;99.90;;;;;;5113881;28;20822;-85
2023/08/31 05:14:52;;;;;;;0.80;0.67;;;12.20;99.90;;;;;;5114119;28;20435;-84
2023/08/31 05:17:19;;;;;;;0.60;0.60;;;12.20;99.90;;;;;;5114203;28;20447;-85
2023/08/31 05:19:47;;;;;;;0.90;0.73;;;12.20;99.90;;;;;;5113809;28;20936;-85
2023/08/31 05:22:15;;;;;;;0.83;0.60;;;12.20;99.90;;;;;;5114059;28;20466;-85
2023/08/31 05:24:42;;;;;;;0.80;0.80;;;12.30;99.90;;;;;;5114237;28;20439;-85
2023/08/31 05:27:08;;;;;;;1.33;1.23;;;12.30;99.90;;;;;;5113862;28;20944;-85
2023/08/31 05:29:35;;;;;;;1.23;0.83;;;12.30;99.90;;;;;;5114162;28;20483;-85
2023/08/31 05:32:02;;;;;;;0.87;0.87;;;12.40;99.90;;;;;;5113959;28;20439;-85
2023/08/31 05:34:30;;;;;;;3.13;0.87;;;13.20;99.90;;;;;;5113969;28;20518;-85
2023/08/31 05:36:57;;;;;;;0.93;0.77;;;12.40;99.90;;;;;;5113106;28;20474;-85
2023/08/31 05:39:25;;;;;;;3.43;0.70;;;12.50;99.90;;;;;;5113938;28;20441;-85
2023/08/31 05:41:52;;;;;;;1.10;0.87;;;12.50;99.90;;;;;;5113819;28;20504;-85
2023/08/31 05:44:19;;;;;;;0.80;0.80;;;12.40;99.90;;;;;;5113480;28;20786;-85
2023/08/31 05:46:45;;;;;;;0.90;0.73;;;12.50;99.90;;;;;;5113675;28;20472;-83
2023/08/31 05:49:12;;;;;;;1.17;1.07;;;12.50;99.90;;;;;;5113933;28;20483;-84
2023/08/31 05:51:39;;;;;;;3.47;1.03;;;12.60;99.90;;;;;;5113479;28;20940;-83
2023/08/31 05:54:10;;;;;;;0.53;0.50;;;12.60;99.90;;;;;;5113800;28;20439;-83
2023/08/31 05:56:39;;;;;;;2.37;1.03;;;12.60;99.90;;;;;;5113757;28;20509;-83
2023/08/31 05:59:06;;;;;;;1.90;1.00;;;12.70;99.90;;;;;;5113732;28;20492;-83
2023/08/31 06:01:33;;;;;;;0.70;0.70;;;12.70;99.90;;;;;;5113611;28;20462;-82
2023/08/31 06:04:00;;;;;;;1.00;0.90;;;12.70;99.90;;;;;;5113409;28;20987;-83
2023/08/31 06:06:26;;;;;;;3.03;0.80;;;12.80;99.90;;;;;;5113564;28;20894;-83
2023/08/31 06:08:54;;;;;;;0.70;0.60;;;12.80;99.90;;;;;;5113763;28;20844;-83
2023/08/31 06:11:21;;;;;;;1.20;0.80;;;12.80;99.90;;;;;;5113304;28;21090;-83
2023/08/31 06:13:49;;;;;;;1.57;0.80;;;12.80;99.90;;;;;;5113559;28;20439;-83
2023/08/31 06:16:16;;;;;;;1.23;0.60;;;12.90;99.90;;;;;;5113132;28;20832;-83
2023/08/31 06:18:43;;;;;;;1.93;1.33;;;13.00;99.90;;;;;;5113461;28;20439;-83
2023/08/31 06:21:10;;;;;;;9.27;1.00;;;13.00;99.90;;;;;;5113370;28;20447;-83
2023/08/31 06:23:37;;;;;;;0.63;0.63;;;13.10;99.90;;;;;;5113468;28;20443;-83
2023/08/31 06:26:04;;;;;;;2.20;0.77;;;13.10;99.90;;;;;;5113055;28;20971;-83
2023/08/31 06:28:31;;;;;;;1.77;1.00;;;13.30;99.90;;;;;;5113004;28;20985;-83
2023/08/31 06:30:59;;;;;;;2.33;0.90;;;13.30;99.90;;;;;;5113612;28;20435;-83
2023/08/31 06:33:25;;;;;;;4.93;1.30;;;13.40;99.90;;;;;;5113316;28;20423;-83
2023/08/31 06:35:52;;;;;;;0.80;0.80;;;13.50;99.90;;;;;;5113265;28;20455;-84
2023/08/31 06:38:19;;;;;;;1.23;0.80;;;13.60;99.90;;;;;;5113287;28;20453;-83
2023/08/31 06:40:47;;;;;;;0.63;0.63;;;13.70;99.90;;;;;;5113330;28;20488;-83
2023/08/31 06:43:14;;;;;;;0.70;0.70;;;13.80;99.90;;;;;;5113321;28;20439;-83
2023/08/31 06:45:41;;;;;;;1.20;1.10;;;14.00;99.90;;;;;;5120891;28;20473;-83
2023/08/31 06:48:09;;;;;;;3.33;0.93;;;14.10;99.90;;;;;;5129462;28;20444;-83
2023/08/31 06:50:36;;;;;;;0.80;0.60;;;14.30;99.90;;;;;;5131183;28;20478;-83
2023/08/31 06:53:03;;;;;;;4.00;1.00;;;14.30;99.90;;;;;;5129545;28;20469;-85
2023/08/31 06:55:31;;;;;;;0.80;0.80;;;14.40;99.90;;;;;;5117981;28;20496;-84
2023/08/31 06:57:58;;;;;;;2.60;1.20;;;14.50;99.90;;;;;;5116504;28;20522;-85
2023/08/31 07:00:25;;;;;;;1.33;0.80;;;14.60;99.90;;;;;;5116550;28;20439;-83
2023/08/31 07:02:52;;;;;;;10.43;1.00;;;14.80;99.90;;;;;;5117343;28;20770;-84
2023/08/31 07:05:25;;;;;;;1.60;1.20;;;15.10;99.90;;;;;;5116392;28;20997;-84
2023/08/31 07:07:53;;;;;;;1.03;0.87;;;15.20;99.90;;;;;;5116644;28;20436;-85
2023/08/31 07:10:19;;;;;;;3.60;1.00;;;15.20;99.90;;;;;;5116712;28;20485;-85
2023/08/31 07:12:46;;;;;;;1.20;1.10;;;15.30;99.90;;;;;;5116585;28;20447;-85
2023/08/31 07:15:13;;;;;;;4.07;0.83;;;15.40;99.90;;;;;;5116378;28;20467;-85
2023/08/31 07:17:40;;;;;;;0.60;0.60;;;15.40;99.90;;;;;;5116504;28;20439;-85
2023/08/31 07:20:09;;;;;;;0.80;0.60;;;15.50;99.90;;;;;;5116502;28;20820;-87
2023/08/31 07:22:37;;;;;;;1.17;0.80;;;15.60;99.90;;;;;;5116601;28;20451;-86
2023/08/31 07:25:05;;;;;;;1.10;1.00;;;15.70;99.90;;;;;;5116109;28;20465;-86
2023/08/31 07:27:32;;;;;;;1.60;1.50;;;15.80;99.90;;;;;;5116428;28;20818;-86
2023/08/31 07:29:59;;;;;;;0.80;0.80;;;15.80;99.90;;;;;;5116325;28;20479;-86
2023/08/31 07:32:26;;;;;;;1.10;0.63;;;15.90;99.90;;;;;;5116051;28;20438;-85
2023/08/31 07:34:52;;;;;;;0.97;0.80;;;15.90;99.90;;;;;;5115801;28;20450;-86
2023/08/31 07:37:19;;;;;;;1.10;0.70;;;15.80;99.90;;;;;;5115898;28;20804;-87
2023/08/31 07:39:47;;;;;;;2.10;0.70;;;15.70;99.90;;;;;;5116385;28;20439;-86
2023/08/31 07:42:14;;;;;;;1.10;0.60;;;15.60;99.90;;;;;;5116100;28;20446;-86
2023/08/31 07:44:41;;;;;;;1.47;0.97;;;15.60;99.90;;;;;;5116060;28;20812;-86
2023/08/31 07:47:08;;;;;;;0.70;0.70;;;15.70;99.90;;;;;;5115769;28;20487;-86
2023/08/31 07:49:35;;;;;;;1.10;0.70;;;15.80;99.90;;;;;;5116065;28;20483;-87
2023/08/31 07:52:02;;;;;;;1.33;0.93;;;15.80;99.90;;;;;;5125249;28;20470;-87
2023/08/31 07:54:29;;;;;;;0.60;0.60;;;16.00;99.90;;;;;;5115449;28;20451;-87
2023/08/31 07:56:57;;;;;;;1.53;1.20;;;16.10;99.90;;;;;;5115872;28;20459;-87
2023/08/31 07:59:24;;;;;;;1.73;0.73;;;16.20;99.90;;;;;;5114945;28;20431;-87
2023/08/31 08:01:51;;;;;;;1.07;0.90;;;16.40;99.90;;;;;;5115808;28;20791;-86
2023/08/31 08:04:19;;;;;;;0.70;0.70;;;16.30;99.90;;;;;;5115493;28;20983;-87
2023/08/31 08:06:46;;;;;;;3.87;1.10;;;16.40;99.90;;;;;;5115788;28;20873;-86
2023/08/31 08:09:13;;;;;;;0.93;0.50;;;16.50;99.90;;;;;;5115884;28;20487;-87
2023/08/31 08:11:40;;;;;;;1.67;0.67;;;16.60;99.90;;;;;;5115839;28;20451;-87
2023/08/31 08:14:08;;;;;;;0.70;0.50;;;16.70;99.90;;;;;;5116146;28;20439;-87
2023/08/31 08:16:36;;;;;;;0.83;0.57;;;16.80;99.90;;;;;;5115683;28;20470;-88
2023/08/31 08:19:03;;;;;;;1.87;1.20;;;16.80;99.90;;;;;;5115671;28;20478;-87
2023/08/31 08:21:30;;;;;;;1.03;0.70;;;16.90;99.90;;;;;;5115170;28;20458;-87
2023/08/31 08:23:56;;;;;;;2.90;0.73;;;17.20;99.90;;;;;;5115703;28;20440;-87
2023/08/31 08:26:23;;;;;;;1.53;0.70;;;17.10;99.90;;;;;;5115483;27;20473;-87
2023/08/31 08:28:50;;;;;;;1.00;0.77;;;17.20;99.90;;;;;;5115539;27;20441;-87
2023/08/31 08:31:18;;;;;;;0.70;0.67;;;17.30;99.90;;;;;;5115289;28;20454;-87
2023/08/31 08:33:45;;;;;;;2.30;0.80;;;17.30;99.90;;;;;;5115493;27;20450;-87
2023/08/31 08:36:11;;;;;;;0.93;0.63;;;17.30;99.90;;;;;;5115421;28;20448;-88
2023/08/31 08:38:38;;;;;;;0.97;0.80;;;17.40;99.90;;;;;;5115439;28;20447;-86
2023/08/31 08:41:06;;;;;;;0.50;0.50;;;17.60;99.90;;;;;;5115372;28;20435;-86
2023/08/31 08:43:34;;;;;;;1.77;0.70;;;17.60;99.90;;;;;;5115070;28;20589;-86
2023/08/31 08:46:06;;;;;;;0.97;0.70;;;17.50;99.90;;;;;;5114814;28;20470;-85
2023/08/31 08:48:35;;;;;;;0.57;0.50;;;17.50;99.90;;;;;;5115303;28;20446;-86
2023/08/31 08:51:04;;;;;;;2.03;0.80;;;17.50;99.90;;;;;;5114709;28;20882;-87
2023/08/31 08:53:31;;;;;;;0.60;0.50;;;17.40;99.90;;;;;;5115093;28;20496;-86
2023/08/31 08:55:59;;;;;;;0.60;0.50;;;17.40;99.90;;;;;;5114759;28;20459;-86
2023/08/31 08:58:25;;;;;;;0.60;0.53;;;17.30;99.90;;;;;;5114293;28;20443;-86
2023/08/31 09:00:55;;;;;;;0.63;0.63;;;17.40;99.90;;;;;;5114367;28;20447;-85
2023/08/31 09:03:22;;;;;;;1.13;0.83;;;17.40;99.90;;;;;;5114472;28;20487;-85
2023/08/31 09:05:51;;;;;;;0.77;0.77;;;17.50;99.90;;;;;;5114297;28;20979;-86
2023/08/31 09:08:18;;;;;;;0.93;0.60;;;17.50;99.90;;;;;;5114778;28;20948;-86
2023/08/31 09:10:45;;;;;;;2.30;0.73;;;17.30;99.90;;;;;;5114743;28;20481;-86
2023/08/31 09:13:13;;;;;;;0.70;0.70;;;17.30;99.90;;;;;;5114448;28;20438;-85
2023/08/31 09:15:42;;;;;;;0.73;0.67;;;17.30;99.90;;;;;;5113975;28;20470;-85
2023/08/31 09:18:09;;;;;;;2.87;0.67;;;17.50;99.90;;;;;;5114381;28;20454;-86
2023/08/31 09:20:45;;;;;;;0.73;0.50;;;17.60;99.90;;;;;;5115165;28;20441;-85
2023/08/31 09:23:13;;;;;;;5.23;0.60;;;17.90;99.90;;;;;;5117838;28;20419;-86
2023/08/31 09:25:44;;;;;;;0.60;0.50;;;18.40;99.90;;;;;;5114923;28;20463;-85
2023/08/31 09:28:12;;;;;;;0.90;0.77;;;18.60;99.90;;;;;;5114361;28;20447;-85
2023/08/31 09:30:41;;;;;;;0.80;0.70;;;18.80;99.90;;;;;;5114168;28;20483;-86
2023/08/31 09:33:09;;;;;;;0.57;0.57;;;18.90;99.90;;;;;;5114275;28;20477;-86
2023/08/31 09:35:40;;;;;;;2.63;0.80;;;18.90;99.90;;;;;;5114103;28;20467;-86
2023/08/31 09:38:10;;;;;;;0.60;0.60;;;18.80;99.90;;;;;;5113692;28;20431;-85
2023/08/31 09:40:38;;;;;;;2.27;0.63;;;18.80;99.90;;;;;;5113914;28;20440;-85
2023/08/31 09:43:05;;;;;;;0.80;0.60;;;18.80;99.90;;;;;;5113911;28;20787;-85
2023/08/31 09:45:34;;;;;;;0.50;0.50;;;18.90;99.90;;;;;;5113511;28;20995;-85
2023/08/31 09:48:02;;;;;;;2.20;0.73;;;18.80;99.90;;;;;;5113881;28;20823;-85
2023/08/31 09:50:30;;;;;;;0.80;0.60;;;18.60;99.90;;;;;;5113739;28;20490;-85
2023/08/31 09:53:03;;;;;;;1.07;0.60;;;18.50;99.90;;;;;;5113841;28;20454;-85
2023/08/31 09:55:32;;;;;;;1.23;0.80;;;18.50;99.90;;;;;;5113658;28;20466;-85
2023/08/31 09:58:01;;;;;;;1.70;0.70;;;18.50;99.90;;;;;;5113551;28;20431;-85
2023/08/31 10:00:30;;;;;;;0.67;0.60;;;18.80;99.90;;;;;;5113741;28;20443;-85
2023/08/31 10:03:01;;;;;;;1.57;0.90;;;19.10;99.90;;;;;;5113387;28;20439;-85
2023/08/31 10:05:29;;;;;;;0.93;0.60;;;19.10;99.90;;;;;;5113713;28;20462;-85
2023/08/31 10:07:56;;;;;;;2.23;0.80;;;19.10;99.90;;;;;;5113390;28;20508;-85
2023/08/31 10:10:23;;;;;;;0.60;0.60;;;19.00;99.90;;;;;;5113377;28;20474;-85
2023/08/31 10:12:52;;;;;;;1.03;0.90;;;18.80;99.90;;;;;;5113687;28;20525;-85
2023/08/31 10:15:20;;;;;;;2.37;0.70;;;18.70;99.90;;;;;;5113702;28;20463;-86
2023/08/31 10:17:47;;;;;;;1.23;0.60;;;18.60;99.90;;;;;;5113697;28;20454;-85
2023/08/31 10:20:18;;;;;;;1.67;0.67;;;18.60;99.90;;;;;;5113355;28;20958;-86
2023/08/31 10:22:45;;;;;;;1.70;0.70;;;18.60;99.90;;;;;;5116419;28;20431;-87
2023/08/31 10:25:12;;;;;;;0.50;0.50;;;18.60;99.90;;;;;;5117379;28;20991;-84
2023/08/31 10:27:40;;;;;;;1.00;0.60;;;18.60;99.90;;;;;;5118914;28;20483;-86
2023/08/31 10:30:32;;;;;;;1.53;0.80;;;18.70;99.90;;;;;;5117705;28;20467;-87
2023/08/31 10:33:23;;;;;;;2.00;0.70;;;18.80;99.90;;;;;;5102518;28;20455;-88
2023/08/31 10:35:52;;;;;;;1.00;0.60;;;19.00;99.90;;;;;;5117524;28;20866;-88
2023/08/31 10:38:25;;;;;;;0.70;0.70;;;19.10;99.90;;;;;;5117569;28;20962;-88
2023/08/31 10:41:20;;;;;;;0.83;0.80;;;19.30;99.90;;;;;;5117469;28;20487;-87
2023/08/31 10:43:50;;;;;;;3.30;0.70;;;19.50;99.90;;;;;;5117367;28;20773;-87
2023/08/31 10:46:19;;;;;;;1.63;0.83;;;19.70;99.90;;;;;;5117157;28;20467;-87
2023/08/31 10:48:53;;;;;;;0.40;0.40;;;19.80;99.90;;;;;;5117271;28;20435;-87
2023/08/31 10:51:22;;;;;;;1.07;0.80;;;19.80;99.90;;;;;;5117078;28;20482;-87
2023/08/31 10:53:49;;;;;;;0.60;0.60;;;20.00;99.90;;;;;;5117505;28;20479;-88
2023/08/31 10:56:17;;;;;;;0.60;0.60;;;20.20;99.90;;;;;;5117165;28;20455;-86
2023/08/31 10:58:44;;;;;;;1.10;0.90;;;20.60;99.90;;;;;;5117134;28;20446;-86
2023/08/31 11:01:11;;;;;;;4.53;0.93;;;20.90;99.90;;;;;;5117158;28;20491;-86
2023/08/31 11:04:00;;;;;;;1.47;0.80;;;20.60;99.90;;;;;;5116920;27;20530;-86
2023/08/31 11:06:29;;;;;;;0.60;0.60;;;20.50;99.90;;;;;;5116595;27;20465;-86
2023/08/31 11:08:56;;;;;;;2.77;1.10;;;20.60;99.90;;;;;;5116551;28;20443;-86
2023/08/31 11:11:24;;;;;;;2.40;0.77;;;20.60;99.90;;;;;;5116918;28;20467;-87
2023/08/31 11:13:57;;;;;;;2.73;0.80;;;20.70;99.90;;;;;;5125639;28;20996;-86
2023/08/31 11:16:24;;;;;;;0.80;0.67;;;20.40;99.90;;;;;;5116890;28;20457;-87
2023/08/31 11:18:51;;;;;;;1.10;0.63;;;20.20;99.90;;;;;;5116566;27;20964;-86
2023/08/31 11:21:19;;;;;;;1.17;0.90;;;20.10;99.90;;;;;;5116347;28;20447;-86
2023/08/31 11:23:48;;;;;;;1.50;0.53;;;20.00;99.90;;;;;;5116400;28;20537;-87
2023/08/31 11:26:15;;;;;;;0.70;0.63;;;19.80;99.90;;;;;;5116477;28;20473;-87
2023/08/31 11:28:46;;;;;;;2.10;1.03;;;19.90;99.90;;;;;;5116414;28;20453;-87
2023/08/31 11:31:13;;;;;;;0.60;0.60;;;19.50;99.90;;;;;;5117174;28;20537;-87
2023/08/31 11:33:41;;;;;;;0.63;0.60;;;19.60;99.90;;;;;;5114759;28;20948;-87
2023/08/31 11:36:08;;;;;;;1.30;0.60;;;19.80;99.90;;;;;;5116396;28;20466;-86
2023/08/31 11:38:36;;;;;;;2.10;0.80;;;19.90;99.90;;;;;;5116031;28;20454;-86
2023/08/31 11:41:03;;;;;;;0.93;0.80;;;20.00;99.90;;;;;;5116342;28;20446;-87
2023/08/31 11:43:30;;;;;;;0.97;0.80;;;20.10;99.90;;;;;;5115687;28;20454;-85
2023/08/31 11:45:57;;;;;;;2.10;0.50;;;20.20;99.90;;;;;;5115729;28;20462;-85
2023/08/31 11:48:24;;;;;;;3.17;0.90;;;20.30;99.90;;;;;;5115944;28;20442;-85
2023/08/31 11:50:52;;;;;;;1.83;0.57;;;20.20;99.90;;;;;;5115804;28;21018;-85
2023/08/31 11:53:19;;;;;;;2.63;0.60;;;20.30;99.90;;;;;;5115838;27;20538;-85
2023/08/31 11:55:54;;;;;;;1.70;0.90;;;20.30;99.90;;;;;;5115718;28;20470;-85
2023/08/31 11:58:21;;;;;;;1.60;0.60;;;20.20;99.90;;;;;;5115689;28;20515;-85
2023/08/31 12:00:56;;;;;;;1.20;1.10;;;20.10;99.90;;;;;;5115663;28;20439;-84
2023/08/31 12:03:23;;;;;;;1.03;0.73;;;20.20;99.90;;;;;;5115611;28;20836;-84
2023/08/31 12:05:54;;;;;;;1.07;0.70;;;20.10;99.90;;;;;;5115515;28;20466;-84
2023/08/31 12:08:25;;;;;;;1.73;0.90;;;20.10;99.90;;;;;;5115310;28;20904;-85
2023/08/31 12:10:54;;;;;;;1.97;0.63;;;20.10;99.90;;;;;;5115522;28;20520;-85
2023/08/31 12:13:21;;;;;;;0.90;0.70;;;20.20;99.90;;;;;;5115511;28;20427;-85
2023/08/31 12:15:53;;;;;;;2.90;1.00;;;20.30;99.90;;;;;;5115053;27;20967;-85
2023/08/31 12:18:20;;;;;;;3.53;0.70;;;20.20;99.90;;;;;;5115491;28;20427;-85
2023/08/31 12:20:47;;;;;;;1.63;0.53;;;20.40;99.90;;;;;;5115304;28;20442;-85
2023/08/31 12:23:15;;;;;;;0.70;0.63;;;20.40;99.90;;;;;;5115223;28;20442;-85
2023/08/31 12:25:47;;;;;;;0.97;0.90;;;20.40;99.90;;;;;;5115145;27;20882;-85
2023/08/31 12:28:15;;;;;;;1.07;0.70;;;20.20;99.90;;;;;;5114848;28;20419;-85
2023/08/31 12:30:44;;;;;;;1.40;0.60;;;20.10;99.90;;;;;;5115026;28;20801;-84
2023/08/31 12:33:11;;;;;;;0.70;0.70;;;20.00;99.90;;;;;;5115070;28;20438;-86
2023/08/31 12:35:38;;;;;;;1.00;0.90;;;20.00;99.90;;;;;;5114976;28;20512;-84
2023/08/31 12:38:05;;;;;;;0.80;0.60;;;19.90;99.90;;;;;;5114560;28;20495;-84
2023/08/31 12:40:31;;;;;;;0.80;0.60;;;19.80;99.90;;;;;;5114863;28;20447;-85
2023/08/31 12:42:58;;;;;;;1.33;0.60;;;19.60;99.90;;;;;;5115088;28;20446;-85
2023/08/31 12:45:26;;;;;;;1.23;0.70;;;19.60;99.90;;;;;;5114300;28;20466;-84
2023/08/31 12:47:53;;;;;;;4.23;0.70;;;19.50;99.90;;;;;;5114413;28;20962;-85
2023/08/31 12:50:20;;;;;;;1.03;0.70;;;19.50;99.90;;;;;;5114777;28;20446;-85
2023/08/31 12:52:47;;;;;;;3.80;1.20;;;19.60;99.90;;;;;;5114838;28;20454;-85